createdAt,value
2022-12-06T00:01:32.466Z,98479.95
2022-12-06T00:04:04.219Z,98472.52
2022-12-06T00:06:36.639Z,98470.52
2022-12-06T00:09:05.236Z,98469.02
2022-12-06T00:11:35.348Z,98464.51
2022-12-06T00:14:06.328Z,98463.46
2022-12-06T00:16:35.113Z,98462.64
2022-12-06T00:19:04.036Z,98461.33
2022-12-06T00:21:34.405Z,98456.01
2022-12-06T00:24:05.794Z,98449.60
2022-12-06T00:26:38.875Z,98436.89
2022-12-06T00:29:08.122Z,98441.73
2022-12-06T00:31:36.125Z,98444.64
2022-12-06T00:34:04.843Z,98446.66
2022-12-06T00:36:37.632Z,98441.63
2022-12-06T00:39:08.234Z,98444.57
2022-12-06T00:41:36.752Z,98445.19
2022-12-06T00:44:05.494Z,98450.73
2022-12-06T00:46:35.133Z,98445.07
2022-12-06T00:49:05.250Z,98442.33
2022-12-06T00:51:34.497Z,98440.95
2022-12-06T00:54:02.925Z,98441.23
2022-12-06T00:56:31.282Z,98439.98
2022-12-06T00:58:59.093Z,98441.39
2022-12-06T01:01:29.955Z,98438.23
2022-12-06T01:03:59.281Z,98433.96
2022-12-06T01:06:30.845Z,98427.69
2022-12-06T01:09:01.856Z,98430.86
2022-12-06T01:11:30.184Z,98424.70
2022-12-06T01:13:58.486Z,98416.72
2022-12-06T01:16:28.411Z,98417.39
2022-12-06T01:18:59.756Z,98413.96
2022-12-06T01:21:28.577Z,98407.92
2022-12-06T01:23:57.776Z,98406.36
2022-12-06T01:26:27.170Z,98404.33
2022-12-06T01:28:55.581Z,98397.93
2022-12-06T01:31:23.724Z,98390.10
2022-12-06T01:33:51.705Z,98384.30
2022-12-06T01:36:22.014Z,98379.89
2022-12-06T01:38:52.217Z,98373.50
2022-12-06T01:41:22.341Z,98371.86
2022-12-06T01:43:51.047Z,98366.11
2022-12-06T01:46:41.707Z,98364.92
2022-12-06T01:49:14.521Z,98356.14
2022-12-06T01:51:54.241Z,98344.90
2022-12-06T01:54:25.352Z,98351.45
2022-12-06T01:56:55.673Z,98345.94
2022-12-06T01:59:25.389Z,98343.25
2022-12-06T02:01:54.120Z,98334.38
2022-12-06T02:04:23.513Z,98328.18
2022-12-06T02:06:54.728Z,98326.34
2022-12-06T02:09:23.100Z,98317.16
2022-12-06T02:11:51.020Z,98315.62
2022-12-06T02:14:24.432Z,98314.67
2022-12-06T02:16:59.576Z,98315.09
2022-12-06T02:19:43.211Z,98319.12
2022-12-06T02:22:22.818Z,98314.95
2022-12-06T02:25:00.066Z,98312.05
2022-12-06T02:27:52.812Z,98306.82
2022-12-06T02:30:47.566Z,98286.81
2022-12-06T02:33:25.484Z,98291.66
2022-12-06T02:36:22.561Z,98287.09
2022-12-06T02:39:02.725Z,98291.21
2022-12-06T02:41:38.861Z,98293.98
2022-12-06T02:44:08.441Z,98291.55
2022-12-06T02:46:39.497Z,98288.33
2022-12-06T02:49:09.750Z,98281.38
2022-12-06T02:51:38.965Z,98269.39
2022-12-06T02:54:10.268Z,98268.50
2022-12-06T02:56:38.409Z,98266.73
2022-12-06T02:59:06.461Z,98262.37
2022-12-06T03:01:41.157Z,98255.93
2022-12-06T03:04:11.741Z,98253.14
2022-12-06T03:07:04.369Z,98251.59
2022-12-06T03:09:54.465Z,98242.34
2022-12-06T03:12:22.385Z,98234.19
2022-12-06T03:14:59.506Z,98229.17
2022-12-06T03:17:41.089Z,98228.15
2022-12-06T03:20:16.020Z,98224.87
2022-12-06T03:22:50.581Z,98224.71
2022-12-06T03:25:18.682Z,98222.13
2022-12-06T03:27:48.995Z,98218.50
2022-12-06T03:30:17.616Z,98213.14
2022-12-06T03:32:49.677Z,98211.65
2022-12-06T03:35:26.515Z,98209.13
2022-12-06T03:37:59.142Z,98204.89
2022-12-06T03:40:29.022Z,98207.93
2022-12-06T03:42:58.006Z,98207.24
2022-12-06T03:45:40.659Z,98208.14
2022-12-06T03:48:33.970Z,98209.48
2022-12-06T03:51:16.596Z,98202.27
2022-12-06T03:53:50.168Z,98199.58
2022-12-06T03:56:18.356Z,98206.97
2022-12-06T03:58:46.744Z,98209.52
2022-12-06T04:01:14.800Z,98192.64
2022-12-06T04:03:42.940Z,98221.77
2022-12-06T04:06:11.846Z,98226.94
2022-12-06T04:08:39.916Z,98226.17
2022-12-06T04:11:08.036Z,98225.45
2022-12-06T04:13:36.082Z,98220.05
2022-12-06T04:16:04.464Z,98216.40
2022-12-06T04:18:32.478Z,98210.24
2022-12-06T04:21:20.526Z,98205.23
2022-12-06T04:23:50.793Z,98199.19
2022-12-06T04:26:21.361Z,98197.65
2022-12-06T04:29:10.223Z,98194.63
2022-12-06T04:31:59.149Z,98190.78
2022-12-06T04:34:45.752Z,98191.83
2022-12-06T04:37:32.607Z,98193.66
2022-12-06T04:40:01.145Z,98192.55
2022-12-06T04:42:48.253Z,98191.73
2022-12-06T04:45:16.417Z,98173.85
2022-12-06T04:47:44.330Z,98195.13
2022-12-06T04:50:12.230Z,98194.65
2022-12-06T04:52:40.263Z,98196.54
2022-12-06T04:55:08.598Z,98194.52
2022-12-06T04:57:36.688Z,98193.41
2022-12-06T05:00:05.506Z,98194.30
2022-12-06T05:02:33.409Z,98196.52
2022-12-06T05:05:01.363Z,98194.84
2022-12-06T05:07:29.493Z,98196.48
2022-12-06T05:09:57.418Z,98195.66
2022-12-06T05:12:25.335Z,98199.50
2022-12-06T05:14:53.201Z,98198.70
2022-12-06T05:17:21.112Z,98201.73
2022-12-06T05:19:49.015Z,98204.61
2022-12-06T05:22:17.166Z,98198.34
2022-12-06T05:24:45.432Z,98196.07
2022-12-06T05:27:13.446Z,98191.56
2022-12-06T05:29:42.461Z,98191.23
2022-12-06T05:32:10.407Z,98189.57
2022-12-06T05:34:38.296Z,98186.85
2022-12-06T05:37:06.518Z,98183.29
2022-12-06T05:39:34.395Z,98186.03
2022-12-06T05:42:02.932Z,98185.70
2022-12-06T05:44:30.859Z,98180.49
2022-12-06T05:46:58.746Z,98174.52
2022-12-06T05:49:27.748Z,98172.87
2022-12-06T05:51:58.830Z,98171.41
2022-12-06T05:54:30.727Z,98169.55
2022-12-06T05:56:58.531Z,98159.50
2022-12-06T05:59:26.570Z,98163.43
2022-12-06T06:01:54.706Z,98159.40
2022-12-06T06:04:22.903Z,98157.86
2022-12-06T06:06:51.542Z,98156.16
2022-12-06T06:09:19.637Z,98166.38
2022-12-06T06:11:47.491Z,98163.44
2022-12-06T06:14:15.445Z,98161.91
2022-12-06T06:16:43.806Z,98162.77
2022-12-06T06:19:12.450Z,98161.70
2022-12-06T06:21:40.338Z,98159.98
2022-12-06T06:24:08.586Z,98160.88
2022-12-06T06:26:36.430Z,98159.06
2022-12-06T06:29:04.270Z,98152.92
2022-12-06T06:31:32.342Z,98146.36
2022-12-06T06:34:00.405Z,98144.70
2022-12-06T06:36:28.246Z,98141.36
2022-12-06T06:38:56.243Z,98141.98
2022-12-06T06:41:24.843Z,98141.92
2022-12-06T06:43:52.753Z,98143.09
2022-12-06T06:46:20.805Z,98143.13
2022-12-06T06:48:48.821Z,98144.85
2022-12-06T06:51:16.812Z,98146.33
2022-12-06T06:53:44.705Z,98140.45
2022-12-06T06:56:12.635Z,98139.61
2022-12-06T06:58:40.675Z,98134.48
2022-12-06T07:01:09.867Z,98129.34
2022-12-06T07:03:37.706Z,98122.55
2022-12-06T07:06:09.526Z,98120.11
2022-12-06T07:08:39.656Z,98121.98
2022-12-06T07:11:09.472Z,98091.95
2022-12-06T07:13:38.902Z,98117.56
2022-12-06T07:16:12.204Z,98117.34
2022-12-06T07:18:40.308Z,98113.96
2022-12-06T07:21:11.053Z,98108.09
2022-12-06T07:23:38.904Z,98116.77
2022-12-06T07:26:10.930Z,98109.11
2022-12-06T07:28:41.984Z,98111.08
2022-12-06T07:31:12.271Z,98108.59
2022-12-06T07:33:41.358Z,98110.42
2022-12-06T07:36:12.887Z,98105.27
2022-12-06T07:38:49.622Z,98098.20
2022-12-06T07:41:36.688Z,98102.73
2022-12-06T07:44:32.025Z,98100.86
2022-12-06T07:47:00.183Z,98101.51
2022-12-06T07:49:28.889Z,98104.31
2022-12-06T07:51:57.031Z,98097.60
2022-12-06T07:54:25.762Z,98093.36
2022-12-06T07:56:56.375Z,98095.08
2022-12-06T07:59:25.529Z,98096.17
2022-12-06T08:01:55.349Z,98096.02
2022-12-06T08:04:23.716Z,98093.84
2022-12-06T08:06:51.674Z,98090.34
2022-12-06T08:09:19.867Z,98092.83
2022-12-06T08:11:47.926Z,98086.29
2022-12-06T08:14:15.934Z,98084.77
2022-12-06T08:16:44.034Z,98087.44
2022-12-06T08:19:11.953Z,98087.02
2022-12-06T08:21:39.892Z,98084.52
2022-12-06T08:24:07.892Z,98084.58
2022-12-06T08:26:36.469Z,98086.48
2022-12-06T08:29:04.318Z,98086.86
2022-12-06T08:31:34.816Z,98089.95
2022-12-06T08:34:04.453Z,98093.86
2022-12-06T08:36:32.652Z,98094.55
2022-12-06T08:39:01.417Z,98098.14
2022-12-06T08:41:48.222Z,98097.69
2022-12-06T08:44:17.201Z,98095.92
2022-12-06T08:46:46.562Z,98092.27
2022-12-06T08:49:17.077Z,98091.48
2022-12-06T08:51:45.793Z,98086.84
2022-12-06T08:54:17.317Z,98086.20
2022-12-06T08:56:45.397Z,98086.02
2022-12-06T08:59:13.546Z,98087.32
2022-12-06T09:01:41.855Z,98080.28
2022-12-06T09:04:11.641Z,98079.88
2022-12-06T09:06:42.249Z,98077.76
2022-12-06T09:09:10.972Z,98078.64
2022-12-06T09:11:39.990Z,98078.43
2022-12-06T09:14:09.358Z,98075.13
2022-12-06T09:16:37.980Z,98075.23
2022-12-06T09:19:05.947Z,98073.38
2022-12-06T09:21:34.746Z,98071.50
2022-12-06T09:24:02.791Z,98068.55
2022-12-06T09:26:30.652Z,98068.19
2022-12-06T09:28:59.215Z,98066.27
2022-12-06T09:31:27.213Z,98062.27
2022-12-06T09:33:55.214Z,98060.97
2022-12-06T09:36:24.636Z,98055.77
2022-12-06T09:39:00.447Z,98057.23
2022-12-06T09:41:47.092Z,98059.63
2022-12-06T09:44:33.922Z,98051.23
2022-12-06T09:47:19.104Z,98046.81
2022-12-06T09:50:02.558Z,98046.16
2022-12-06T09:52:42.984Z,98036.83
2022-12-06T09:55:29.484Z,98040.30
2022-12-06T09:58:44.493Z,98037.25
2022-12-06T10:01:34.415Z,98033.59
2022-12-06T10:04:54.616Z,98034.06
2022-12-06T10:07:39.148Z,98029.40
2022-12-06T10:10:26.037Z,98029.33
2022-12-06T10:13:00.351Z,98030.48
2022-12-06T10:15:39.971Z,98027.80
2022-12-06T10:18:07.828Z,98024.47
2022-12-06T10:20:47.561Z,98025.94
2022-12-06T10:23:21.918Z,98016.30
2022-12-06T10:26:17.186Z,98018.06
2022-12-06T10:28:57.588Z,98022.90
2022-12-06T10:31:57.080Z,98027.69
2022-12-06T10:34:57.651Z,98026.42
2022-12-06T10:37:42.540Z,98026.39
2022-12-06T10:40:10.488Z,98028.92
2022-12-06T10:42:38.222Z,98027.75
2022-12-06T10:45:33.905Z,98026.83
2022-12-06T10:48:09.013Z,98017.73
2022-12-06T10:50:39.224Z,98016.58
2022-12-06T10:56:09.626Z,98009.27
2022-12-06T10:58:42.605Z,98000.44
2022-12-06T11:01:19.864Z,97995.88
2022-12-06T11:04:00.310Z,98005.05
2022-12-06T11:06:41.033Z,97993.77
2022-12-06T11:09:18.953Z,97993.46
2022-12-06T11:11:49.372Z,97992.48
2022-12-06T11:14:29.581Z,97992.20
2022-12-06T11:17:06.063Z,97988.31
2022-12-06T11:19:45.803Z,97989.71
2022-12-06T11:22:16.728Z,97989.36
2022-12-06T11:24:53.810Z,97984.27
2022-12-06T11:27:39.956Z,97983.50
2022-12-06T11:30:20.741Z,97984.44
2022-12-06T11:32:51.773Z,97981.25
2022-12-06T11:35:25.112Z,97980.92
2022-12-06T11:37:58.504Z,97983.86
2022-12-06T11:40:33.280Z,97984.34
2022-12-06T11:43:05.660Z,97986.78
2022-12-06T11:45:37.511Z,97987.39
2022-12-06T11:48:21.180Z,97980.79
2022-12-06T11:50:51.122Z,97981.02
2022-12-06T11:53:23.005Z,97976.30
2022-12-06T11:55:54.585Z,97978.67
2022-12-06T11:58:28.647Z,97970.15
2022-12-06T12:00:58.260Z,97975.30
2022-12-06T12:03:32.298Z,97975.17
2022-12-06T12:06:09.673Z,97975.66
2022-12-06T12:08:38.281Z,97969.27
2022-12-06T12:11:06.979Z,97967.84
2022-12-06T12:13:48.663Z,97961.95
2022-12-06T12:16:28.402Z,97960.39
2022-12-06T12:19:07.083Z,97957.52
2022-12-06T12:21:41.166Z,97957.06
2022-12-06T12:27:49.284Z,97954.06
2022-12-06T12:30:20.561Z,97949.02
2022-12-06T12:33:09.166Z,97945.28
2022-12-06T12:35:39.268Z,97953.06
2022-12-06T12:38:10.331Z,97951.20
2022-12-06T12:40:48.897Z,97951.09
2022-12-06T12:43:24.638Z,97950.74
2022-12-06T12:46:09.933Z,97948.73
2022-12-06T12:48:41.933Z,97949.86
2022-12-06T12:51:30.985Z,97938.77
2022-12-06T12:54:24.547Z,97937.22
2022-12-06T12:56:54.767Z,97939.53
2022-12-06T12:59:26.070Z,97942.20
2022-12-06T13:02:27.139Z,97940.93
2022-12-06T13:05:39.537Z,97936.92
2022-12-06T13:08:25.110Z,97939.14
2022-12-06T13:10:59.121Z,97942.19
2022-12-06T13:13:42.903Z,97936.05
2022-12-06T13:16:14.425Z,97931.02
2022-12-06T13:18:47.739Z,97940.00
2022-12-06T13:21:38.024Z,97939.36
2022-12-06T13:24:12.735Z,97935.91
2022-12-06T13:26:47.875Z,97933.17
2022-12-06T13:29:24.858Z,97929.48
2022-12-06T13:31:56.259Z,97934.56
2022-12-06T13:34:38.093Z,97936.00
2022-12-06T13:37:28.358Z,97931.72
2022-12-06T13:39:57.425Z,97926.92
2022-12-06T13:42:34.639Z,97925.87
2022-12-06T13:45:05.533Z,97926.01
2022-12-06T13:47:33.405Z,97931.42
2022-12-06T13:50:04.902Z,97933.31
2022-12-06T13:52:42.116Z,97931.91
2022-12-06T13:55:25.733Z,97928.59
2022-12-06T13:58:00.017Z,97923.08
2022-12-06T14:00:30.270Z,97923.87
2022-12-06T14:03:05.275Z,97922.33
2022-12-06T14:08:19.313Z,97918.37
2022-12-06T14:10:47.981Z,97921.65
2022-12-06T14:13:21.242Z,97926.08
2022-12-06T14:15:51.406Z,97928.69
2022-12-06T14:18:22.874Z,97925.81
2022-12-06T14:20:53.566Z,97930.46
2022-12-06T14:23:38.523Z,97926.31
2022-12-06T14:26:22.052Z,97926.41
2022-12-06T14:28:51.744Z,97926.44
2022-12-06T14:31:28.461Z,97926.13
2022-12-06T14:33:57.340Z,97925.89
2022-12-06T14:36:28.395Z,97920.67
2022-12-06T14:39:27.602Z,97920.09
2022-12-06T14:42:17.216Z,97920.24
2022-12-06T14:44:53.327Z,97919.56
2022-12-06T14:47:24.305Z,97917.20
2022-12-06T14:50:13.855Z,97919.45
2022-12-06T14:53:05.304Z,97917.10
2022-12-06T14:55:51.513Z,97914.27
2022-12-06T14:58:23.881Z,97916.75
2022-12-06T15:01:00.354Z,97914.44
2022-12-06T15:03:32.695Z,97919.27
2022-12-06T15:06:22.267Z,97922.16
2022-12-06T15:09:02.940Z,97922.59
2022-12-06T15:11:49.651Z,97922.48
2022-12-06T15:14:48.693Z,97919.86
2022-12-06T15:17:21.821Z,97918.80
2022-12-06T15:19:53.727Z,97918.21
2022-12-06T15:22:25.619Z,97917.75
2022-12-06T15:25:00.046Z,97923.90
2022-12-06T15:27:28.273Z,97926.59
2022-12-06T15:29:56.361Z,97929.54
2022-12-06T15:32:26.401Z,97937.48
2022-12-06T15:34:58.123Z,97942.77
2022-12-06T15:37:44.013Z,97946.19
2022-12-06T15:40:14.548Z,97944.45
2022-12-06T15:42:42.902Z,97941.98
2022-12-06T15:45:15.223Z,97945.16
2022-12-06T15:47:43.272Z,97943.13
2022-12-06T15:50:15.542Z,97942.45
2022-12-06T15:52:43.589Z,97944.77
2022-12-06T15:55:18.323Z,97947.61
2022-12-06T15:57:46.855Z,97951.34
2022-12-06T16:00:15.126Z,97951.04
2022-12-06T16:02:43.226Z,97949.34
2022-12-06T16:05:16.561Z,97946.14
2022-12-06T16:07:44.578Z,97952.24
2022-12-06T16:10:15.583Z,97949.06
2022-12-06T16:13:06.175Z,97954.70
2022-12-06T16:15:34.205Z,97954.50
2022-12-06T16:18:02.470Z,97956.62
2022-12-06T16:20:33.414Z,97957.81
2022-12-06T16:23:21.602Z,97958.16
2022-12-06T16:25:49.673Z,97957.14
2022-12-06T16:28:17.854Z,97958.47
2022-12-06T16:30:45.675Z,97957.00
2022-12-06T16:33:18.143Z,97959.30
2022-12-06T16:35:47.393Z,97958.63
2022-12-06T16:38:18.217Z,97958.83
2022-12-06T16:40:47.141Z,97958.89
2022-12-06T16:43:15.055Z,97959.22
2022-12-06T16:45:45.304Z,97956.92
2022-12-06T16:48:20.078Z,97955.35
2022-12-06T16:50:48.321Z,97952.48
2022-12-06T16:53:16.789Z,97952.58
2022-12-06T16:55:45.028Z,97940.65
2022-12-06T16:58:12.931Z,97953.67
2022-12-06T17:00:41.116Z,97953.47
2022-12-06T17:03:09.660Z,97956.08
2022-12-06T17:05:37.907Z,97952.85
2022-12-06T17:08:05.985Z,97954.89
2022-12-06T17:10:34.043Z,97962.33
2022-12-06T17:13:02.273Z,97959.31
2022-12-06T17:15:30.154Z,97964.73
2022-12-06T17:17:58.196Z,97959.77
2022-12-06T17:20:26.197Z,97962.02
2022-12-06T17:22:54.253Z,97959.56
2022-12-06T17:25:22.369Z,97958.76
2022-12-06T17:27:51.592Z,97961.86
2022-12-06T17:30:20.112Z,97962.66
2022-12-06T17:32:48.849Z,97965.10
2022-12-06T17:35:16.992Z,97968.05
2022-12-06T17:37:45.310Z,97967.86
2022-12-06T17:40:13.854Z,97963.01
2022-12-06T17:43:00.175Z,97960.40
2022-12-06T17:45:28.501Z,97961.03
2022-12-06T17:47:56.613Z,97959.67
2022-12-06T17:50:24.576Z,97958.16
2022-12-06T17:52:52.496Z,97961.33
2022-12-06T17:55:20.625Z,97962.79
2022-12-06T17:57:48.617Z,97961.48
2022-12-06T18:00:16.896Z,97957.71
2022-12-06T18:02:45.241Z,97958.87
2022-12-06T18:05:13.468Z,97965.16
2022-12-06T18:07:41.501Z,97963.70
2022-12-06T18:10:11.137Z,97960.98
2022-12-06T18:12:39.221Z,97961.02
2022-12-06T18:15:27.758Z,97962.15
2022-12-06T18:17:55.613Z,97958.90
2022-12-06T18:20:23.535Z,97959.46
2022-12-06T18:22:51.520Z,97960.63
2022-12-06T18:25:19.745Z,97960.02
2022-12-06T18:27:52.598Z,97953.90
2022-12-06T18:30:24.371Z,97953.48
2022-12-06T18:32:54.861Z,97950.42
2022-12-06T18:35:23.946Z,97949.55
2022-12-06T18:37:52.056Z,97948.57
2022-12-06T18:40:19.899Z,97952.40
2022-12-06T18:42:47.901Z,97953.52
2022-12-06T18:45:16.007Z,97950.94
2022-12-06T18:47:44.151Z,97947.70
2022-12-06T18:50:12.120Z,97945.19
2022-12-06T18:52:40.185Z,97945.21
2022-12-06T18:55:08.593Z,97942.96
2022-12-06T18:57:38.246Z,97945.71
2022-12-06T19:00:07.210Z,97935.57
2022-12-06T19:02:35.443Z,97940.81
2022-12-06T19:05:04.510Z,97946.97
2022-12-06T19:07:33.703Z,97935.77
2022-12-06T19:10:02.485Z,97942.50
2022-12-06T19:12:30.902Z,97946.17
2022-12-06T19:14:59.005Z,97953.40
2022-12-06T19:17:27.167Z,97952.69
2022-12-06T19:19:55.396Z,97952.32
2022-12-06T19:22:23.412Z,97951.68
2022-12-06T19:24:51.669Z,97951.55
2022-12-06T19:27:20.841Z,97954.15
2022-12-06T19:29:49.282Z,97957.54
2022-12-06T19:32:17.469Z,97955.55
2022-12-06T19:34:45.769Z,97957.14
2022-12-06T19:37:13.989Z,97954.38
2022-12-06T19:39:42.060Z,97956.39
2022-12-06T19:42:28.972Z,97954.92
2022-12-06T19:44:57.208Z,97958.43
2022-12-06T19:47:25.412Z,97957.04
2022-12-06T19:49:53.580Z,97959.96
2022-12-06T19:52:23.361Z,97954.77
2022-12-06T19:54:55.720Z,97953.45
2022-12-06T19:57:23.694Z,97950.14
2022-12-06T19:59:54.861Z,97948.36
2022-12-06T20:02:23.156Z,97948.35
2022-12-06T20:04:51.609Z,97948.95
2022-12-06T20:07:19.705Z,97949.33
2022-12-06T20:09:47.693Z,97948.23
2022-12-06T20:12:15.915Z,97946.24
2022-12-06T20:14:46.716Z,97943.68
2022-12-06T20:17:17.696Z,97942.41
2022-12-06T20:19:46.593Z,97945.83
2022-12-06T20:22:17.118Z,97945.18
2022-12-06T20:24:45.812Z,97941.89
2022-12-06T20:27:14.259Z,97941.30
2022-12-06T20:29:42.534Z,97935.77
2022-12-06T20:32:11.498Z,97931.44
2022-12-06T20:34:39.705Z,97942.73
2022-12-06T20:37:07.789Z,97942.80
2022-12-06T20:39:36.436Z,97939.83
2022-12-06T20:42:06.934Z,97940.35
2022-12-06T20:44:35.904Z,97935.50
2022-12-06T20:47:04.345Z,97933.34
2022-12-06T20:49:32.845Z,97928.78
2022-12-06T20:52:02.974Z,97924.75
2022-12-06T20:54:31.149Z,97924.61
2022-12-06T20:56:59.180Z,97926.67
2022-12-06T20:59:27.535Z,97930.52
2022-12-06T21:01:55.749Z,97930.26
2022-12-06T21:04:23.575Z,97917.28
2022-12-06T21:06:51.530Z,97935.09
2022-12-06T21:09:19.684Z,97934.13
2022-12-06T21:11:48.403Z,97936.64
2022-12-06T21:14:17.185Z,97929.02
2022-12-06T21:16:45.369Z,97939.05
2022-12-06T21:19:16.995Z,97935.77
2022-12-06T21:21:53.322Z,97937.66
2022-12-06T21:24:22.191Z,97937.27
2022-12-06T21:26:50.422Z,97937.50
2022-12-06T21:29:26.627Z,97940.11
2022-12-06T21:31:56.413Z,97940.42
2022-12-06T21:34:24.435Z,97937.98
2022-12-06T21:36:52.355Z,97940.27
2022-12-06T21:39:20.532Z,97940.23
2022-12-06T21:41:48.642Z,97940.91
2022-12-06T21:44:16.943Z,97937.73
2022-12-06T21:46:45.302Z,97938.19
2022-12-06T21:49:13.263Z,97941.10
2022-12-06T21:51:41.109Z,97940.14
2022-12-06T21:54:09.240Z,97941.76
2022-12-06T21:56:38.468Z,97942.73
2022-12-06T21:59:06.452Z,97930.22
2022-12-06T22:01:34.396Z,97934.45
2022-12-06T22:04:04.601Z,97933.34
2022-12-06T22:06:34.644Z,97928.24
2022-12-06T22:09:05.807Z,97927.66
2022-12-06T22:11:34.770Z,97926.30
2022-12-06T22:14:04.913Z,97924.79
2022-12-06T22:16:32.941Z,97928.65
2022-12-06T22:19:01.218Z,97926.15
2022-12-06T22:21:31.429Z,97926.02
2022-12-06T22:24:00.575Z,97925.42
2022-12-06T22:26:31.079Z,97926.27
2022-12-06T22:29:00.314Z,97924.76
2022-12-06T22:31:31.578Z,97925.02
2022-12-06T22:34:00.666Z,97927.48
2022-12-06T22:36:29.394Z,97926.05
2022-12-06T22:38:58.962Z,97921.21
2022-12-06T22:41:28.011Z,97919.89
2022-12-06T22:43:59.270Z,97916.14
2022-12-06T22:46:28.845Z,97914.27
2022-12-06T22:48:58.265Z,97921.04
2022-12-06T22:51:29.391Z,97924.50
2022-12-06T22:54:03.322Z,97920.02
2022-12-06T22:56:33.758Z,97915.61
2022-12-06T22:59:02.181Z,97915.70
2022-12-06T23:01:32.802Z,97915.61
2022-12-06T23:04:04.161Z,97915.52
2022-12-06T23:06:33.130Z,97914.19
2022-12-06T23:09:01.911Z,97912.52
2022-12-06T23:11:35.283Z,97918.16
2022-12-06T23:14:04.879Z,97912.82
2022-12-06T23:16:33.469Z,97905.60
2022-12-06T23:19:03.225Z,97902.73
2022-12-06T23:21:34.117Z,97902.67
2022-12-06T23:24:05.069Z,97899.86
2022-12-06T23:26:36.066Z,97896.09
2022-12-06T23:29:04.550Z,97897.02
2022-12-06T23:31:35.893Z,97897.85
2022-12-06T23:34:13.186Z,97896.73
2022-12-06T23:36:42.261Z,97896.04
2022-12-06T23:39:10.510Z,97892.98
2022-12-06T23:41:39.070Z,97889.89
2022-12-06T23:44:08.033Z,97883.81
2022-12-06T23:46:38.234Z,97862.12
2022-12-06T23:49:07.478Z,97888.41
2022-12-06T23:51:38.224Z,97886.52
2022-12-06T23:54:07.913Z,97884.64
2022-12-06T23:56:38.760Z,97879.21
2022-12-06T23:59:08.463Z,97878.74
